Time;durP1;ratioP1;P1;durP2;ratioP2;P2;SDS_P1;SDS_P2;PMS_P1;PMS_P2;Temp;Humidity;BMP_temperature;BMP_pressure;BME280_temperature;BME280_humidity;BME280_pressure;Samples;Min_cycle;Max_cycle;Signal;HPM_P1;HPM_P2
2022/03/30 00:01:32;;;;;;;;;;;;;;;25.47;33.62;93117.28;4887984;29;7948;-59
2022/03/30 00:03:59;;;;;;;;;;;;;;;25.48;34.18;93121.53;4899296;29;9286;-60
2022/03/30 00:06:36;;;;;;;;;;;;;;;25.48;34.06;93110.50;4884335;29;7446;-60
2022/03/30 00:09:15;;;;;;;;;;;;;;;25.50;34.25;93112.72;4876172;29;8929;-60
2022/03/30 00:11:41;;;;;;;;;;;;;;;25.49;34.01;93111.97;4891549;29;7194;-60
2022/03/30 00:14:11;;;;;;;;;;;;;;;25.49;33.84;93111.25;4873927;29;9186;-60
2022/03/30 00:16:44;;;;;;;;;;;;;;;25.49;34.18;93111.25;4899662;29;9064;-60
2022/03/30 00:19:11;;;;;;;;;;;;;;;25.48;33.42;93110.50;4918261;29;9188;-59
2022/03/30 00:21:55;;;;;;;;;;;;;;;25.46;33.63;93107.56;4938968;28;7003;-59
2022/03/30 00:24:43;;;;;;;;;;;;;;;25.46;33.49;93110.31;4936732;28;8753;-59
2022/03/30 00:27:43;;;;;;;;;;;;;;;25.47;34.00;93102.81;4939760;28;9268;-59
2022/03/30 00:30:48;;;;;;;;;;;;;;;25.45;34.16;93105.34;4936967;29;7212;-60
2022/03/30 00:33:15;;;;;;;;;;;;;;;25.44;34.08;93099.09;4952939;28;7036;-59
2022/03/30 00:35:59;;;;;;;;;;;;;;;25.44;33.69;93090.84;4953961;29;7192;-60
2022/03/30 00:38:56;;;;;;;;;;;;;;;25.44;33.28;93101.84;4938607;29;9345;-59
2022/03/30 00:41:22;;;;;;;;;;;;;;;25.42;34.14;93085.16;4946421;28;7966;-59
2022/03/30 00:43:50;;;;;;;;;;;;;;;25.42;34.22;93087.91;4939435;28;9074;-59
2022/03/30 00:46:19;;;;;;;;;;;;;;;25.40;34.26;93082.88;4942359;28;7143;-59
2022/03/30 00:48:46;;;;;;;;;;;;;;;25.40;33.58;93080.13;4954166;28;7914;-60
2022/03/30 00:51:15;;;;;;;;;;;;;;;25.40;33.58;93079.41;4938697;28;9114;-59
2022/03/30 00:53:41;;;;;;;;;;;;;;;25.40;33.60;93082.16;4954356;28;7084;-59
2022/03/30 00:56:10;;;;;;;;;;;;;;;25.41;33.73;93083.63;4917485;29;7230;-59
2022/03/30 00:58:36;;;;;;;;;;;;;;;25.40;33.52;93077.38;4952074;28;7109;-59
2022/03/30 01:01:02;;;;;;;;;;;;;;;25.38;33.87;93076.47;4956742;28;7842;-60
2022/03/30 01:04:15;;;;;;;;;;;;;;;25.39;34.26;93064.16;4940768;28;9248;-60
2022/03/30 01:06:41;;;;;;;;;;;;;;;25.37;34.07;93072.22;4860414;29;8818;-59
2022/03/30 01:09:09;;;;;;;;;;;;;;;25.36;33.58;93059.72;4844513;29;7221;-60
2022/03/30 01:11:56;;;;;;;;;;;;;;;25.37;33.96;93052.97;4858486;29;9146;-59
2022/03/30 01:14:42;;;;;;;;;;;;;;;25.36;33.43;93051.47;4866737;29;9226;-59
2022/03/30 01:17:13;;;;;;;;;;;;;;;25.32;34.15;93042.84;4853048;29;7577;-59
2022/03/30 01:19:58;;;;;;;;;;;;;;;25.35;33.58;93047.28;4847833;29;9464;-60
2022/03/30 01:26:00;;;;;;;;;;;;;;;25.34;33.79;93045.78;4838903;29;8043;-59
2022/03/30 01:28:28;;;;;;;;;;;;;;;25.32;34.30;93031.81;4838251;29;7293;-59
2022/03/30 01:33:49;;;;;;;;;;;;;;;25.31;34.05;93024.88;4838190;29;9052;-59
2022/03/30 01:36:26;;;;;;;;;;;;;;;25.33;34.18;93027.81;4839803;29;8759;-59
2022/03/30 01:38:52;;;;;;;;;;;;;;;25.32;34.30;93016.06;4824747;29;7394;-59
2022/03/30 01:41:18;;;;;;;;;;;;;;;25.32;33.90;93021.56;4837446;29;9128;-59
2022/03/30 01:43:59;;;;;;;;;;;;;;;25.31;34.05;93002.84;4860462;29;7244;-59
2022/03/30 01:46:51;;;;;;;;;;;;;;;25.31;34.38;93006.34;4891512;29;9034;-59
2022/03/30 01:49:33;;;;;;;;;;;;;;;25.29;34.16;93000.63;4882502;29;9099;-59
2022/03/30 01:52:08;;;;;;;;;;;;;;;25.29;33.57;92997.16;4872077;29;8105;-59
2022/03/30 01:54:38;;;;;;;;;;;;;;;25.28;34.17;92996.41;4880165;29;7599;-59
2022/03/30 01:57:05;;;;;;;;;;;;;;;25.29;33.64;92997.16;4888361;29;9068;-59
2022/03/30 01:59:31;;;;;;;;;;;;;;;25.27;34.20;92992.16;4894604;29;7561;-59
2022/03/30 02:02:05;;;;;;;;;;;;;;;25.28;33.43;92987.41;4899849;28;9346;-59
2022/03/30 02:05:10;;;;;;;;;;;;;;;25.27;33.54;92980.44;4933771;28;9171;-59
2022/03/30 02:07:56;;;;;;;;;;;;;;;25.28;34.08;92982.66;4917674;29;7867;-59
2022/03/30 02:10:22;;;;;;;;;;;;;;;25.29;33.72;92986.13;4914088;29;7511;-59
2022/03/30 02:12:53;;;;;;;;;;;;;;;25.29;33.88;92977.88;4914702;29;7471;-59
2022/03/30 02:15:49;;;;;;;;;;;;;;;25.28;33.94;92970.91;4926379;29;9079;-59
2022/03/30 02:18:32;;;;;;;;;;;;;;;25.27;34.14;92970.16;4826024;29;8110;-59
2022/03/30 02:21:00;;;;;;;;;;;;;;;25.28;33.53;92968.13;4830961;29;9151;-59
2022/03/30 02:24:00;;;;;;;;;;;;;;;25.27;33.55;92966.69;4834955;29;8993;-59
2022/03/30 02:26:27;;;;;;;;;;;;;;;25.25;33.88;92967.22;4836651;29;7181;-59
2022/03/30 02:29:11;;;;;;;;;;;;;;;25.25;33.62;92961.69;4838741;29;7443;-59
2022/03/30 02:31:38;;;;;;;;;;;;;;;25.25;33.90;92964.47;4828321;29;7459;-60
2022/03/30 02:34:11;;;;;;;;;;;;;;;25.24;33.74;92959.50;4831410;29;8062;-59
2022/03/30 02:37:10;;;;;;;;;;;;;;;25.24;33.66;92962.25;4833748;29;7428;-59
2022/03/30 02:39:38;;;;;;;;;;;;;;;25.24;33.27;92952.00;4782913;30;9129;-59
2022/03/30 02:42:07;;;;;;;;;;;;;;;25.22;34.05;92953.81;4769244;30;8261;-59
2022/03/30 02:44:34;;;;;;;;;;;;;;;25.24;34.11;92954.00;4783138;29;7155;-59
2022/03/30 02:47:01;;;;;;;;;;;;;;;25.23;33.99;92949.75;4770042;30;7063;-59
2022/03/30 02:49:36;;;;;;;;;;;;;;;25.24;33.71;92943.00;4782162;30;7849;-59
2022/03/30 02:52:05;;;;;;;;;;;;;;;25.23;33.75;92936.75;4784113;29;7361;-59
2022/03/30 02:54:31;;;;;;;;;;;;;;;25.24;33.47;92943.00;4819113;29;7234;-59
2022/03/30 02:56:57;;;;;;;;;;;;;;;25.25;34.08;92934.19;4876177;29;8714;-59
2022/03/30 02:59:23;;;;;;;;;;;;;;;25.26;33.99;92929.44;4867775;29;7912;-59
2022/03/30 03:01:49;;;;;;;;;;;;;;;25.22;33.87;92935.28;4867349;29;9172;-59
2022/03/30 03:04:17;;;;;;;;;;;;;;;25.25;33.89;92936.22;4849997;29;7889;-59
2022/03/30 03:06:44;;;;;;;;;;;;;;;25.20;33.96;92929.59;4872277;29;9224;-59
2022/03/30 03:09:11;;;;;;;;;;;;;;;25.22;33.65;92923.53;4861377;29;7421;-59
2022/03/30 03:11:37;;;;;;;;;;;;;;;25.24;33.79;92920.97;4844797;29;8244;-60
2022/03/30 03:14:07;;;;;;;;;;;;;;;25.22;33.60;92924.28;4871708;29;7088;-59
2022/03/30 03:16:33;;;;;;;;;;;;;;;25.22;34.35;92921.53;4926308;28;8765;-59
2022/03/30 03:19:01;;;;;;;;;;;;;;;25.23;33.96;92922.25;4940186;28;9046;-59
2022/03/30 03:21:27;;;;;;;;;;;;;;;25.22;33.68;92926.28;4932415;28;7884;-60
2022/03/30 03:23:53;;;;;;;;;;;;;;;25.21;33.90;92917.28;4931127;28;7627;-59
2022/03/30 03:26:19;;;;;;;;;;;;;;;25.22;33.67;92923.53;4949102;28;9248;-59
2022/03/30 03:28:47;;;;;;;;;;;;;;;25.21;33.90;92920.03;4942184;28;9136;-59
2022/03/30 03:31:13;;;;;;;;;;;;;;;25.21;33.99;92919.31;4935745;29;9741;-59
2022/03/30 03:33:39;;;;;;;;;;;;;;;25.18;33.42;92923.16;4927880;29;6990;-59
2022/03/30 03:36:05;;;;;;;;;;;;;;;25.21;34.05;92919.31;4916882;29;9220;-59
2022/03/30 03:38:33;;;;;;;;;;;;;;;25.20;33.22;92915.84;4948118;29;6980;-59
2022/03/30 03:41:00;;;;;;;;;;;;;;;25.20;33.46;92910.34;4938221;28;8891;-59
2022/03/30 03:43:42;;;;;;;;;;;;;;;25.21;33.73;92916.56;4951820;28;9073;-59
2022/03/30 03:46:21;;;;;;;;;;;;;;;25.20;33.77;92915.84;4952461;28;7524;-59
2022/03/30 03:48:58;;;;;;;;;;;;;;;25.21;33.62;92922.06;4953934;28;7265;-59
2022/03/30 03:51:24;;;;;;;;;;;;;;;25.19;33.53;92913.59;4938263;29;8980;-60
2022/03/30 03:54:02;;;;;;;;;;;;;;;25.17;33.98;92913.41;4931468;29;7487;-60
2022/03/30 03:56:28;;;;;;;;;;;;;;;25.18;33.67;92904.63;4949832;28;9097;-60
2022/03/30 03:58:54;;;;;;;;;;;;;;;25.14;33.69;92901.47;4933767;28;9006;-60
2022/03/30 04:01:23;;;;;;;;;;;;;;;25.17;33.99;92911.41;4948308;28;7169;-60
2022/03/30 04:03:48;;;;;;;;;;;;;;;25.18;33.46;92906.66;4933638;29;9058;-60
2022/03/30 04:06:17;;;;;;;;;;;;;;;25.17;33.42;92899.66;4945494;29;9581;-60
2022/03/30 04:08:46;;;;;;;;;;;;;;;25.18;33.58;92901.88;4923898;29;7032;-60
2022/03/30 04:11:42;;;;;;;;;;;;;;;25.19;33.51;92905.34;4920954;29;9037;-60
2022/03/30 04:14:29;;;;;;;;;;;;;;;25.17;33.20;92899.66;4898662;29;9389;-60
2022/03/30 04:17:04;;;;;;;;;;;;;;;25.17;33.71;92896.91;4910091;29;9414;-60
2022/03/30 04:19:30;;;;;;;;;;;;;;;25.16;33.48;92892.69;4907387;29;7660;-60
2022/03/30 04:22:08;;;;;;;;;;;;;;;25.16;33.51;92898.22;4897905;29;9038;-60
2022/03/30 04:24:36;;;;;;;;;;;;;;;25.15;33.25;92893.97;4880875;29;7483;-60
2022/03/30 04:27:13;;;;;;;;;;;;;;;25.13;33.89;92891.78;4907491;29;8447;-60
2022/03/30 04:30:13;;;;;;;;;;;;;;;25.14;33.63;92893.22;4889298;29;7547;-60
2022/03/30 04:32:39;;;;;;;;;;;;;;;25.16;33.89;92892.69;4836554;29;9387;-60
2022/03/30 04:35:06;;;;;;;;;;;;;;;25.13;33.85;92894.53;4858545;29;9485;-60
2022/03/30 04:37:32;;;;;;;;;;;;;;;25.14;33.02;92887.00;4842653;29;9060;-60
2022/03/30 04:40:05;;;;;;;;;;;;;;;25.14;34.05;92884.25;4858062;29;8837;-60
2022/03/30 04:42:33;;;;;;;;;;;;;;;25.13;33.23;92882.78;4861643;29;7252;-59
2022/03/30 04:45:04;;;;;;;;;;;;;;;25.10;33.64;92884.59;4840441;29;7049;-60
2022/03/30 04:47:32;;;;;;;;;;;;;;;25.08;33.83;92880.91;4856115;29;7254;-60
2022/03/30 04:49:58;;;;;;;;;;;;;;;25.10;33.67;92883.88;4850363;29;9156;-60
2022/03/30 04:52:26;;;;;;;;;;;;;;;25.08;33.57;92878.16;4894293;29;8955;-60
2022/03/30 04:54:53;;;;;;;;;;;;;;;25.07;33.72;92877.44;4882009;29;7197;-59
2022/03/30 04:57:22;;;;;;;;;;;;;;;25.07;33.75;92884.94;4878025;29;7250;-60
2022/03/30 04:59:47;;;;;;;;;;;;;;;25.06;33.53;92875.22;4881274;29;7553;-60
2022/03/30 05:02:16;;;;;;;;;;;;;;;25.09;33.88;92874.88;4893897;29;7307;-60
2022/03/30 05:04:45;;;;;;;;;;;;;;;25.08;33.38;92883.66;4895442;29;7002;-59
2022/03/30 05:07:19;;;;;;;;;;;;;;;25.07;33.42;92871.19;4894836;28;7221;-59
2022/03/30 05:10:19;;;;;;;;;;;;;;;25.07;33.54;92863.69;4939853;28;9214;-60
2022/03/30 05:12:46;;;;;;;;;;;;;;;25.08;33.64;92861.66;4937668;28;8753;-59
2022/03/30 05:15:12;;;;;;;;;;;;;;;25.07;33.61;92863.69;4924451;28;7642;-59
2022/03/30 05:17:45;;;;;;;;;;;;;;;25.07;33.56;92871.94;4944366;28;9188;-60
2022/03/30 05:20:15;;;;;;;;;;;;;;;25.04;33.43;92864.03;4926823;29;9444;-59
2022/03/30 05:22:41;;;;;;;;;;;;;;;25.07;33.50;92868.44;4955656;28;9012;-60
2022/03/30 05:25:11;;;;;;;;;;;;;;;25.08;33.64;92864.41;4946725;28;9148;-60
2022/03/30 05:28:05;;;;;;;;;;;;;;;25.04;33.21;92864.03;4940403;28;7445;-59
2022/03/30 05:30:36;;;;;;;;;;;;;;;25.01;33.44;92862.38;4946287;28;9355;-60
2022/03/30 05:33:04;;;;;;;;;;;;;;;25.03;33.35;92857.81;4956573;28;9085;-59
2022/03/30 05:35:30;;;;;;;;;;;;;;;25.04;33.39;92855.78;4938027;28;9397;-60
2022/03/30 05:38:25;;;;;;;;;;;;;;;25.01;33.85;92865.13;4938754;28;8975;-60
2022/03/30 05:40:51;;;;;;;;;;;;;;;25.01;33.51;92870.63;4911934;29;7255;-60
2022/03/30 05:43:18;;;;;;;;;;;;;;;25.03;33.34;92868.06;4891706;29;7263;-59
2022/03/30 05:45:52;;;;;;;;;;;;;;;25.02;33.39;92863.84;4914939;29;8812;-59
2022/03/30 05:48:21;;;;;;;;;;;;;;;25.02;33.53;92867.31;4911447;29;9256;-61
2022/03/30 05:50:57;;;;;;;;;;;;;;;25.01;33.48;92867.88;4909705;29;7351;-60
2022/03/30 05:53:43;;;;;;;;;;;;;;;25.02;33.37;92866.59;4910035;29;7383;-61
2022/03/30 05:56:09;;;;;;;;;;;;;;;25.03;33.58;92865.31;4907745;29;9741;-60
2022/03/30 05:58:38;;;;;;;;;;;;;;;25.00;33.76;92864.38;4894621;29;6985;-61
2022/03/30 06:01:04;;;;;;;;;;;;;;;25.02;34.26;92863.84;4891984;29;9433;-60
2022/03/30 06:03:49;;;;;;;;;;;;;;;25.03;33.90;92865.31;4897448;29;7317;-60
2022/03/30 06:06:30;;;;;;;;;;;;;;;25.04;34.22;92864.75;4907008;29;7234;-60
2022/03/30 06:09:10;;;;;;;;;;;;;;;25.06;33.48;92866.97;4906027;29;7498;-60
2022/03/30 06:11:46;;;;;;;;;;;;;;;25.03;33.56;92862.56;4913182;29;9857;-60
2022/03/30 06:14:21;;;;;;;;;;;;;;;25.00;33.73;92869.13;4914051;29;9075;-61
2022/03/30 06:16:50;;;;;;;;;;;;;;;25.02;34.68;92866.59;4918149;28;9518;-60
2022/03/30 06:19:19;;;;;;;;;;;;;;;25.03;34.33;92866.06;4938103;28;7034;-60
2022/03/30 06:21:46;;;;;;;;;;;;;;;25.03;33.94;92868.06;4948810;28;9254;-61
2022/03/30 06:24:21;;;;;;;;;;;;;;;25.03;34.37;92870.81;4952941;28;7412;-60
2022/03/30 06:27:00;;;;;;;;;;;;;;;25.02;34.46;92866.59;4924351;28;7398;-60
2022/03/30 06:29:34;;;;;;;;;;;;;;;25.02;34.02;92880.34;4934079;28;7254;-58
2022/03/30 06:32:09;;;;;;;;;;;;;;;25.02;34.42;92872.09;4931445;28;7055;-58
2022/03/30 06:35:00;;;;;;;;;;;;;;;25.02;34.26;92869.34;4945701;28;9170;-58
2022/03/30 06:37:26;;;;;;;;;;;;;;;25.00;34.00;92874.63;4932228;28;9149;-60
2022/03/30 06:39:53;;;;;;;;;;;;;;;25.00;34.24;92877.41;4942065;28;8749;-60
2022/03/30 06:42:21;;;;;;;;;;;;;;;24.99;34.05;92867.69;4950651;28;9531;-60
2022/03/30 06:44:58;;;;;;;;;;;;;;;24.98;34.02;92874.44;4942080;28;9406;-60
2022/03/30 06:47:25;;;;;;;;;;;;;;;24.98;33.78;92871.69;4937627;28;9303;-60
2022/03/30 06:53:40;;;;;;;;;;;;;;;24.95;34.45;92875.53;4927526;29;8966;-60
2022/03/30 06:56:38;;;;;;;;;;;;;;;24.97;34.50;92870.97;4930713;29;9266;-60
2022/03/30 06:59:03;;;;;;;;;;;;;;;24.98;34.53;92868.94;4889683;29;7324;-60
2022/03/30 07:01:29;;;;;;;;;;;;;;;24.97;34.06;92864.75;4884489;29;7921;-60
2022/03/30 07:03:58;;;;;;;;;;;;;;;24.96;33.88;92868.75;4871429;29;7883;-60
2022/03/30 07:06:23;;;;;;;;;;;;;;;24.96;34.67;92874.25;4889924;29;7373;-60
2022/03/30 07:11:39;;;;;;;;;;;;;;;24.99;34.68;92862.19;4890851;29;9153;-60
2022/03/30 07:14:18;;;;;;;;;;;;;;;24.97;34.28;92865.47;4891966;29;7621;-60
2022/03/30 07:17:00;;;;;;;;;;;;;;;25.00;34.02;92863.63;4878912;29;9136;-60
2022/03/30 07:19:40;;;;;;;;;;;;;;;24.98;34.64;92863.44;4894307;29;8978;-61
2022/03/30 07:22:13;;;;;;;;;;;;;;;24.95;34.38;92867.28;4889359;29;7285;-60
2022/03/30 07:24:41;;;;;;;;;;;;;;;24.96;34.58;92863.25;4892851;29;9054;-60
2022/03/30 07:27:18;;;;;;;;;;;;;;;24.95;34.48;92865.25;4892647;29;8812;-60
2022/03/30 07:29:53;;;;;;;;;;;;;;;24.97;33.98;92862.00;4889419;29;9128;-61
2022/03/30 07:32:36;;;;;;;;;;;;;;;24.94;34.72;92863.06;4889153;29;7266;-61
2022/03/30 07:35:03;;;;;;;;;;;;;;;24.92;34.59;92863.63;4910152;28;9450;-61
2022/03/30 07:37:30;;;;;;;;;;;;;;;24.96;34.37;92858.50;4935378;29;9073;-61
2022/03/30 07:40:29;;;;;;;;;;;;;;;24.96;35.01;92861.25;4947139;28;9564;-61
2022/03/30 07:43:07;;;;;;;;;;;;;;;24.95;34.58;92857.00;4872030;29;9382;-61
2022/03/30 07:45:55;;;;;;;;;;;;;;;24.96;34.37;92858.50;4877206;29;8803;-62
2022/03/30 07:48:25;;;;;;;;;;;;;;;24.95;34.72;92856.28;4870477;29;7059;-61
2022/03/30 07:50:54;;;;;;;;;;;;;;;24.96;34.45;92852.25;4893043;29;9526;-61
2022/03/30 07:53:52;;;;;;;;;;;;;;;24.98;34.98;92855.19;4893688;29;8645;-60
2022/03/30 07:56:34;;;;;;;;;;;;;;;24.97;34.65;92856.50;4825253;29;7063;-61
2022/03/30 07:59:00;;;;;;;;;;;;;;;24.98;34.64;92850.44;4804434;29;9373;-61
2022/03/30 08:01:31;;;;;;;;;;;;;;;24.97;34.99;92854.44;4808561;29;6999;-61
2022/03/30 08:03:58;;;;;;;;;;;;;;;24.95;34.50;92850.78;4818081;29;9409;-61
2022/03/30 08:06:34;;;;;;;;;;;;;;;24.97;34.91;92853.75;4801456;29;7247;-58
2022/03/30 08:09:03;;;;;;;;;;;;;;;24.97;34.46;92859.25;4803891;29;7294;-58
2022/03/30 08:11:31;;;;;;;;;;;;;;;24.96;34.88;92847.50;4819997;29;7254;-61
2022/03/30 08:14:06;;;;;;;;;;;;;;;24.94;34.60;92855.56;4818422;29;7286;-60
2022/03/30 08:17:02;;;;;;;;;;;;;;;24.95;34.72;92857.00;4828816;29;8856;-60
2022/03/30 08:19:37;;;;;;;;;;;;;;;24.98;34.80;92860.69;4798583;29;8685;-59
2022/03/30 08:24:49;;;;;;;;;;;;;;;24.98;34.68;92861.44;4803811;29;10170;-61
2022/03/30 08:27:18;;;;;;;;;;;;;;;24.98;35.41;92866.19;4788919;29;9504;-60
2022/03/30 08:29:45;;;;;;;;;;;;;;;24.95;35.27;92862.50;4805245;29;7075;-61
2022/03/30 08:32:15;;;;;;;;;;;;;;;24.96;35.45;92858.50;4808460;29;9164;-60
2022/03/30 08:34:43;;;;;;;;;;;;;;;24.98;35.40;92863.44;4880093;29;7037;-60
2022/03/30 08:37:21;;;;;;;;;;;;;;;24.95;35.04;92861.78;4869810;29;7264;-60
2022/03/30 08:39:58;;;;;;;;;;;;;;;24.96;35.40;92863.25;4876573;29;8797;-60
2022/03/30 08:42:24;;;;;;;;;;;;;;;24.95;35.57;92861.78;4875378;29;7146;-60
2022/03/30 08:45:22;;;;;;;;;;;;;;;24.96;34.76;92858.50;4850942;29;9177;-60
2022/03/30 08:47:54;;;;;;;;;;;;;;;24.98;35.31;92861.44;4786490;29;8636;-61
2022/03/30 08:50:31;;;;;;;;;;;;;;;24.97;35.20;92862.00;4802234;29;9541;-60
2022/03/30 08:53:05;;;;;;;;;;;;;;;24.99;35.08;92868.41;4795259;29;8742;-61
2022/03/30 08:55:31;;;;;;;;;;;;;;;24.99;35.07;92873.19;4814275;29;9200;-61
2022/03/30 08:57:57;;;;;;;;;;;;;;;24.98;35.31;92872.44;4852926;29;8762;-60
2022/03/30 09:00:26;;;;;;;;;;;;;;;24.98;35.20;92871.69;4840027;29;9601;-60
2022/03/30 09:03:00;;;;;;;;;;;;;;;24.99;35.23;92867.69;4839209;29;9172;-59
2022/03/30 09:05:38;;;;;;;;;;;;;;;25.00;34.81;92869.13;4855932;29;9048;-59
2022/03/30 09:08:25;;;;;;;;;;;;;;;24.98;34.99;92877.94;4841615;29;8797;-60
2022/03/30 09:11:03;;;;;;;;;;;;;;;24.98;35.09;92874.44;4834619;29;7216;-60
2022/03/30 09:13:31;;;;;;;;;;;;;;;25.00;34.88;92866.38;4840702;29;9127;-60
2022/03/30 09:15:57;;;;;;;;;;;;;;;25.00;35.17;92878.13;4837790;29;9130;-60
2022/03/30 09:18:28;;;;;;;;;;;;;;;25.02;35.00;92875.56;4858030;29;8040;-60
2022/03/30 09:20:57;;;;;;;;;;;;;;;25.04;35.32;92870.25;4860009;29;9106;-60
2022/03/30 09:23:46;;;;;;;;;;;;;;;25.02;34.98;92872.09;4880660;28;7879;-60
2022/03/30 09:26:13;;;;;;;;;;;;;;;25.02;35.61;92872.81;4942207;28;7163;-60
2022/03/30 09:28:41;;;;;;;;;;;;;;;25.04;35.74;92869.53;4952134;28;7979;-60
2022/03/30 09:31:10;;;;;;;;;;;;;;;25.00;35.96;92866.38;4955700;28;9198;-59
2022/03/30 09:33:59;;;;;;;;;;;;;;;25.03;35.81;92868.06;4952031;28;7773;-59
2022/03/30 09:36:29;;;;;;;;;;;;;;;25.03;35.83;92868.81;4940724;28;9703;-60
2022/03/30 09:39:09;;;;;;;;;;;;;;;25.05;36.18;92871.00;4952006;28;8862;-60
2022/03/30 09:41:59;;;;;;;;;;;;;;;25.06;36.14;92864.22;4955463;28;8602;-60
2022/03/30 09:44:47;;;;;;;;;;;;;;;25.06;35.97;92858.72;4931245;28;8218;-60
2022/03/30 09:47:16;;;;;;;;;;;;;;;25.06;36.89;92859.44;4954052;28;9397;-59
2022/03/30 09:49:54;;;;;;;;;;;;;;;25.06;36.55;92864.94;4938437;28;9072;-60
2022/03/30 09:52:29;;;;;;;;;;;;;;;25.04;36.34;92856.50;4952772;28;6994;-59
2022/03/30 09:55:04;;;;;;;;;;;;;;;25.05;36.44;92862.75;4939725;28;8973;-60
2022/03/30 09:57:37;;;;;;;;;;;;;;;25.04;36.00;92853.03;4924815;28;7258;-59
2022/03/30 10:00:17;;;;;;;;;;;;;;;25.03;36.53;92855.06;4933897;28;8770;-59
2022/03/30 10:02:49;;;;;;;;;;;;;;;25.02;36.88;92859.06;4929244;28;7807;-59
2022/03/30 10:05:22;;;;;;;;;;;;;;;25.03;37.18;92854.31;4947008;28;9118;-61
2022/03/30 10:07:52;;;;;;;;;;;;;;;25.05;36.81;92851.75;4949915;28;6940;-60
2022/03/30 10:10:25;;;;;;;;;;;;;;;25.02;36.96;92850.06;4940889;28;6991;-60
2022/03/30 10:12:51;;;;;;;;;;;;;;;25.04;36.97;92851.00;4930144;28;9417;-60
2022/03/30 10:15:20;;;;;;;;;;;;;;;25.01;37.12;92843.84;4935569;28;7214;-61
2022/03/30 10:17:46;;;;;;;;;;;;;;;25.00;37.85;92852.63;4946216;28;7234;-61
2022/03/30 10:20:13;;;;;;;;;;;;;;;25.01;37.04;92843.84;4932051;28;7477;-61
2022/03/30 10:22:43;;;;;;;;;;;;;;;24.99;37.73;92840.19;4921453;29;9470;-61
2022/03/30 10:26:01;;;;;;;;;;;;;;;25.01;37.70;92838.34;4946918;28;9336;-59
2022/03/30 10:28:40;;;;;;;;;;;;;;;25.01;37.53;92838.34;4899692;29;7243;-59
2022/03/30 10:31:21;;;;;;;;;;;;;;;25.02;37.21;92836.31;4902696;29;8807;-61
2022/03/30 10:33:47;;;;;;;;;;;;;;;25.02;37.36;92836.31;4890275;29;8777;-61
2022/03/30 10:36:27;;;;;;;;;;;;;;;25.04;37.57;92828.25;4909485;29;7269;-61
2022/03/30 10:39:14;;;;;;;;;;;;;;;25.05;37.64;92816.72;4904953;29;7215;-61
2022/03/30 10:41:52;;;;;;;;;;;;;;;25.06;37.51;92817.44;4905249;29;7068;-60
2022/03/30 10:44:51;;;;;;;;;;;;;;;25.09;37.24;92816.38;4902357;29;7262;-61
2022/03/30 10:47:23;;;;;;;;;;;;;;;25.08;37.33;92815.63;4890800;29;9851;-60
2022/03/30 10:49:52;;;;;;;;;;;;;;;25.09;37.47;92811.59;4902983;29;8615;-61
2022/03/30 10:52:50;;;;;;;;;;;;;;;25.09;37.68;92805.38;4911490;29;7232;-61
2022/03/30 10:55:33;;;;;;;;;;;;;;;25.08;37.56;92812.13;4901444;29;7086;-61
2022/03/30 10:58:04;;;;;;;;;;;;;;;25.07;37.58;92805.19;4896355;29;7075;-60
2022/03/30 11:00:41;;;;;;;;;;;;;;;25.07;37.51;92805.91;4894486;29;9048;-61
2022/03/30 11:03:28;;;;;;;;;;;;;;;25.06;37.75;92801.69;4899978;29;7240;-61
2022/03/30 11:06:06;;;;;;;;;;;;;;;25.06;37.58;92798.19;4933894;28;9293;-61
2022/03/30 11:09:30;;;;;;;;;;;;;;;25.09;37.49;92797.09;4933833;28;7239;-61
2022/03/30 11:12:19;;;;;;;;;;;;;;;25.08;37.80;92792.88;4906374;29;7085;-61
2022/03/30 11:15:14;;;;;;;;;;;;;;;25.08;37.58;92792.88;4899436;29;6990;-61
2022/03/30 11:17:47;;;;;;;;;;;;;;;25.06;37.53;92789.94;4911410;29;8807;-60
2022/03/30 11:20:50;;;;;;;;;;;;;;;25.08;37.73;92785.38;4896716;29;9628;-61
2022/03/30 11:24:02;;;;;;;;;;;;;;;25.10;37.54;92784.84;4912976;29;9026;-58
2022/03/30 11:26:53;;;;;;;;;;;;;;;25.11;37.09;92780.78;4895696;29;7801;-59
2022/03/30 11:29:48;;;;;;;;;;;;;;;25.08;37.12;92770.88;4899906;29;9119;-58
2022/03/30 11:32:32;;;;;;;;;;;;;;;25.08;37.84;92770.88;4911532;29;7985;-59
2022/03/30 11:35:05;;;;;;;;;;;;;;;25.11;37.15;92764.28;4913371;29;9163;-59
2022/03/30 11:37:38;;;;;;;;;;;;;;;25.13;37.12;92769.97;4895516;29;7062;-59
2022/03/30 11:40:09;;;;;;;;;;;;;;;25.13;37.51;92762.47;4912997;29;7274;-58
2022/03/30 11:42:42;;;;;;;;;;;;;;;25.13;37.60;92756.97;4912324;29;8614;-59
2022/03/30 11:45:29;;;;;;;;;;;;;;;25.15;37.40;92753.66;4926876;29;8712;-59
2022/03/30 11:48:12;;;;;;;;;;;;;;;25.10;37.71;92749.78;4950580;28;7311;-59
2022/03/30 11:51:16;;;;;;;;;;;;;;;25.09;37.51;92744.84;4941935;29;7277;-58
2022/03/30 11:53:45;;;;;;;;;;;;;;;25.10;37.58;92747.03;4889770;29;8761;-59
2022/03/30 11:56:23;;;;;;;;;;;;;;;25.09;37.68;92739.34;4900063;29;7319;-58
2022/03/30 11:58:56;;;;;;;;;;;;;;;25.08;37.57;92737.84;4883799;29;7007;-59
2022/03/30 12:01:25;;;;;;;;;;;;;;;25.11;38.09;92745.03;4904907;29;8769;-58
2022/03/30 12:03:55;;;;;;;;;;;;;;;25.08;38.15;92743.34;4887197;29;9507;-58
2022/03/30 12:06:58;;;;;;;;;;;;;;;25.10;37.95;92746.31;4891405;29;8676;-58
2022/03/30 12:09:44;;;;;;;;;;;;;;;25.10;37.73;92741.53;4841451;29;7296;-58
2022/03/30 12:12:35;;;;;;;;;;;;;;;25.10;37.33;92740.81;4854874;29;7061;-58
2022/03/30 12:15:16;;;;;;;;;;;;;;;25.06;37.51;92740.41;4838389;29;9117;-59
2022/03/30 12:17:50;;;;;;;;;;;;;;;25.11;38.10;92742.28;4852826;29;8909;-59
2022/03/30 12:20:33;;;;;;;;;;;;;;;25.09;37.73;92733.84;4844450;29;7160;-59
2022/03/30 12:23:01;;;;;;;;;;;;;;;25.08;38.35;92732.34;4831289;29;9235;-59
2022/03/30 12:25:31;;;;;;;;;;;;;;;25.09;37.87;92728.34;4883525;29;8304;-60
2022/03/30 12:28:00;;;;;;;;;;;;;;;25.08;37.50;92730.34;4874972;29;7920;-59
2022/03/30 12:30:29;;;;;;;;;;;;;;;25.11;37.90;92725.78;4886570;29;9095;-59
2022/03/30 12:33:10;;;;;;;;;;;;;;;25.11;37.90;92720.28;4893544;29;9147;-59
2022/03/30 12:35:39;;;;;;;;;;;;;;;25.11;37.64;92714.78;4894274;29;7042;-59
2022/03/30 12:38:11;;;;;;;;;;;;;;;25.11;38.28;92717.53;4881211;29;9220;-59
2022/03/30 12:40:52;;;;;;;;;;;;;;;25.07;37.84;92712.38;4894270;29;9123;-59
2022/03/30 12:43:27;;;;;;;;;;;;;;;25.10;38.23;92707.81;4924231;28;7057;-59
2022/03/30 12:46:03;;;;;;;;;;;;;;;25.11;37.73;92698.25;4936773;28;6995;-59
2022/03/30 12:48:34;;;;;;;;;;;;;;;25.12;37.52;92697.72;4946538;28;9328;-59
2022/03/30 12:51:04;;;;;;;;;;;;;;;25.14;38.23;92700.63;4952244;28;7354;-59
2022/03/30 12:53:35;;;;;;;;;;;;;;;25.16;38.30;92689.09;4954480;28;7208;-60
2022/03/30 12:56:17;;;;;;;;;;;;;;;25.17;37.78;92690.56;4950930;28;8034;-60
2022/03/30 12:58:56;;;;;;;;;;;;;;;25.18;38.17;92679.03;4949580;28;7635;-60
2022/03/30 13:01:39;;;;;;;;;;;;;;;25.22;37.39;92673.88;4954898;28;9000;-60
2022/03/30 13:04:25;;;;;;;;;;;;;;;25.19;38.14;92669.47;4937957;28;8845;-60
2022/03/30 13:07:21;;;;;;;;;;;;;;;25.29;38.13;92666.91;4941699;28;9070;-60
2022/03/30 13:10:06;;;;;;;;;;;;;;;25.26;37.46;92659.75;4937496;28;9022;-59
2022/03/30 13:12:59;;;;;;;;;;;;;;;25.25;38.35;92648.00;4930794;28;7287;-60
2022/03/30 13:15:34;;;;;;;;;;;;;;;25.28;38.17;92651.69;4942693;28;8708;-60
2022/03/30 13:18:06;;;;;;;;;;;;;;;25.28;37.51;92643.44;4953104;28;7286;-60
2022/03/30 13:20:37;;;;;;;;;;;;;;;25.23;37.33;92633.34;4938960;28;7338;-60
2022/03/30 13:23:15;;;;;;;;;;;;;;;25.24;36.61;92635.56;4922429;29;7274;-60
2022/03/30 13:26:28;;;;;;;;;;;;;;;25.24;37.18;92635.56;4938162;28;9002;-60
2022/03/30 13:29:05;;;;;;;;;;;;;;;25.28;37.15;92618.66;4897318;29;8960;-60
2022/03/30 13:31:32;;;;;;;;;;;;;;;25.28;37.46;92622.16;4911191;29;7260;-59
2022/03/30 13:34:28;;;;;;;;;;;;;;;25.30;37.02;92622.34;4909385;29;7319;-59
2022/03/30 13:36:56;;;;;;;;;;;;;;;25.32;36.98;92605.25;4825173;29;7064;-59
2022/03/30 13:39:41;;;;;;;;;;;;;;;25.34;37.01;92616.44;4825875;29;7109;-59
2022/03/30 13:42:19;;;;;;;;;;;;;;;25.34;37.83;92603.44;4827118;29;7055;-60
2022/03/30 13:45:04;;;;;;;;;;;;;;;25.35;37.18;92602.16;4839279;29;7422;-59
2022/03/30 13:47:30;;;;;;;;;;;;;;;25.36;37.18;92603.63;4842227;29;9495;-60
2022/03/30 13:50:15;;;;;;;;;;;;;;;25.35;37.54;92602.16;4824363;29;8896;-60
2022/03/30 13:53:08;;;;;;;;;;;;;;;25.34;36.60;92599.94;4813887;29;7227;-60
2022/03/30 13:55:43;;;;;;;;;;;;;;;25.33;37.53;92587.47;4841355;29;7233;-59
2022/03/30 13:58:09;;;;;;;;;;;;;;;25.34;37.26;92588.94;4839107;29;8468;-60